createdAt,value
2022-12-28T00:01:49.057Z,95995.84
2022-12-28T00:04:16.106Z,95992.59
2022-12-28T00:06:43.136Z,96009.19
2022-12-28T00:09:11.893Z,96007.56
2022-12-28T00:11:38.805Z,96015.50
2022-12-28T00:14:24.537Z,96004.25
2022-12-28T00:16:51.527Z,95990.34
2022-12-28T00:19:18.476Z,95991.56
2022-12-28T00:21:46.184Z,96011.44
2022-12-28T00:24:24.527Z,96022.88
2022-12-28T00:26:52.315Z,96016.34
2022-12-28T00:29:20.220Z,95952.09
2022-12-28T00:31:47.263Z,96004.25
2022-12-28T00:34:14.847Z,96033.53
2022-12-28T00:37:10.804Z,96034.53
2022-12-28T00:39:29.615Z,96004.44
2022-12-28T00:41:56.515Z,96034.53
2022-12-28T00:44:23.515Z,96023.25
2022-12-28T00:46:50.647Z,96038.00
2022-12-28T00:49:18.509Z,96053.97
2022-12-28T00:51:45.518Z,96035.16
2022-12-28T00:54:12.651Z,96030.84
2022-12-28T00:56:43.083Z,96032.88
2022-12-28T00:59:10.482Z,96032.91
2022-12-28T01:01:37.623Z,96043.50
2022-12-28T01:04:05.237Z,96035.53
2022-12-28T01:06:32.083Z,96034.09
2022-12-28T01:08:59.931Z,96053.31
2022-12-28T01:11:29.545Z,96041.03
2022-12-28T01:13:59.461Z,96047.00
2022-12-28T01:16:29.459Z,96039.84
2022-12-28T01:18:58.673Z,96042.28
2022-12-28T01:21:28.197Z,96031.44
2022-12-28T01:23:58.219Z,96046.78
2022-12-28T01:26:26.599Z,96041.03
2022-12-28T01:28:53.830Z,96044.53
2022-12-28T01:31:21.993Z,96044.13
2022-12-28T01:33:51.158Z,96030.38
2022-12-28T01:36:19.350Z,96031.03
2022-12-28T01:38:47.365Z,96043.13
2022-12-28T01:41:17.261Z,96041.06
2022-12-28T01:44:07.553Z,96023.50
2022-12-28T01:46:45.760Z,96023.69
2022-12-28T01:49:27.496Z,96035.53
2022-12-28T01:52:00.686Z,96035.13
2022-12-28T01:54:34.224Z,96030.41
2022-12-28T01:57:03.426Z,96022.81
2022-12-28T01:59:35.919Z,96029.78
2022-12-28T02:02:03.529Z,96015.06
2022-12-28T02:04:30.924Z,96007.91
2022-12-28T02:06:58.082Z,96014.66
2022-12-28T02:09:32.378Z,95991.94
2022-12-28T02:12:00.804Z,96026.88
2022-12-28T02:14:28.873Z,96002.13
2022-12-28T02:16:56.157Z,96007.25
2022-12-28T02:19:41.191Z,95979.88
2022-12-28T02:22:33.233Z,95996.22
2022-12-28T02:25:14.149Z,95994.59
2022-12-28T02:27:50.143Z,95997.69
2022-12-28T02:30:17.735Z,96002.38
2022-12-28T02:32:59.932Z,95999.09
2022-12-28T02:35:32.991Z,95998.47
2022-12-28T02:38:07.755Z,95992.13
2022-12-28T02:40:53.688Z,95992.94
2022-12-28T02:43:23.296Z,95987.78
2022-12-28T02:46:08.740Z,95977.97
2022-12-28T02:49:01.687Z,95974.88
2022-12-28T02:52:02.867Z,95995.97
2022-12-28T02:55:22.661Z,95983.66
2022-12-28T02:58:14.659Z,95991.28
2022-12-28T03:00:53.550Z,95979.63
2022-12-28T03:03:32.340Z,95918.25
2022-12-28T03:06:44.446Z,95979.63
2022-12-28T03:09:38.527Z,95980.03
2022-12-28T03:12:05.795Z,95986.63
2022-12-28T03:14:40.816Z,95972.53
2022-12-28T03:17:28.488Z,95971.25
2022-12-28T03:20:20.724Z,95991.53
2022-12-28T03:23:08.241Z,95979.88
2022-12-28T03:25:59.075Z,95994.84
2022-12-28T03:28:53.834Z,95992.19
2022-12-28T03:31:25.249Z,96001.16
2022-12-28T03:34:06.969Z,96003.25
2022-12-28T03:36:48.749Z,96006.72
2022-12-28T03:39:52.057Z,96010.19
2022-12-28T03:42:39.044Z,96006.25
2022-12-28T03:45:46.714Z,96001.50
2022-12-28T03:48:13.360Z,95990.56
2022-12-28T03:50:44.411Z,95983.03
2022-12-28T03:53:17.087Z,95979.13
2022-12-28T03:55:45.515Z,95995.50
2022-12-28T03:58:14.614Z,95979.91
2022-12-28T04:00:41.972Z,95978.13
2022-12-28T04:03:08.997Z,95971.44
2022-12-28T04:05:36.165Z,95983.72
2022-12-28T04:08:03.108Z,95984.53
2022-12-28T04:10:30.158Z,95973.97
2022-12-28T04:12:58.296Z,95993.84
2022-12-28T04:15:25.341Z,95976.72
2022-12-28T04:17:52.692Z,95965.03
2022-12-28T04:20:19.676Z,95977.75
2022-12-28T04:22:46.716Z,95975.94
2022-12-28T04:25:14.367Z,95985.47
2022-12-28T04:27:41.294Z,95988.69
2022-12-28T04:30:18.870Z,96001.56
2022-12-28T04:32:46.241Z,96016.59
2022-12-28T04:35:14.118Z,96008.81
2022-12-28T04:37:48.846Z,96014.38
2022-12-28T04:40:15.882Z,96029.38
2022-12-28T04:42:42.859Z,96010.53
2022-12-28T04:45:10.186Z,96009.56
2022-12-28T04:47:37.035Z,96004.84
2022-12-28T04:50:04.036Z,96034.97
2022-12-28T04:52:30.970Z,96035.53
2022-12-28T04:54:58.031Z,96035.16
2022-12-28T04:57:24.935Z,96032.41
2022-12-28T04:59:51.941Z,96037.75
2022-12-28T05:02:18.917Z,96032.94
2022-12-28T05:04:50.333Z,96039.53
2022-12-28T05:07:17.215Z,95991.63
2022-12-28T05:09:44.078Z,96018.72
2022-12-28T05:12:11.390Z,95948.56
2022-12-28T05:14:38.262Z,96006.06
2022-12-28T05:17:05.552Z,96007.50
2022-12-28T05:19:32.503Z,96020.56
2022-12-28T05:21:59.450Z,96023.84
2022-12-28T05:24:26.539Z,96029.38
2022-12-28T05:26:53.599Z,95997.69
2022-12-28T05:29:20.579Z,96000.56
2022-12-28T05:31:47.588Z,96021.63
2022-12-28T05:34:14.591Z,96015.66
2022-12-28T05:36:43.845Z,96038.91
2022-12-28T05:39:10.793Z,96037.88
2022-12-28T05:41:37.620Z,96022.91
2022-12-28T05:44:04.821Z,96048.09
2022-12-28T05:46:34.133Z,96035.63
2022-12-28T05:49:01.201Z,96058.13
2022-12-28T05:51:31.209Z,96021.88
2022-12-28T05:54:01.056Z,96045.19
2022-12-28T05:56:29.482Z,96054.38
2022-12-28T05:59:01.852Z,96058.91
2022-12-28T06:01:31.563Z,96065.50
2022-12-28T06:04:04.219Z,96054.06
2022-12-28T06:06:33.241Z,96027.50
2022-12-28T06:09:00.587Z,96050.19
2022-12-28T06:11:29.433Z,96072.50
2022-12-28T06:13:57.788Z,96042.59
2022-12-28T06:16:30.627Z,96075.56
2022-12-28T06:18:58.100Z,96080.63
2022-12-28T06:21:30.657Z,96076.97
2022-12-28T06:23:59.190Z,96057.03
2022-12-28T06:26:28.374Z,96043.16
2022-12-28T06:28:55.420Z,96061.59
2022-12-28T06:31:25.431Z,96067.16
2022-12-28T06:33:55.026Z,96057.91
2022-12-28T06:36:23.205Z,96069.00
2022-12-28T06:38:53.637Z,96063.69
2022-12-28T06:41:21.937Z,96066.88
2022-12-28T06:43:50.529Z,96071.50
2022-12-28T06:46:19.729Z,96080.78
2022-12-28T06:48:46.952Z,96095.31
2022-12-28T06:51:19.220Z,96082.56
2022-12-28T06:53:47.511Z,96073.59
2022-12-28T06:56:18.597Z,96080.97
2022-12-28T06:58:47.082Z,96089.13
2022-12-28T07:01:18.450Z,96086.06
2022-12-28T07:03:47.701Z,96085.13
2022-12-28T07:06:16.961Z,96069.56
2022-12-28T07:08:44.799Z,96076.81
2022-12-28T07:11:15.487Z,96076.19
2022-12-28T07:13:42.726Z,96078.63
2022-12-28T07:18:55.662Z,96074.16
2022-12-28T07:21:25.289Z,96069.41
2022-12-28T07:23:53.911Z,96037.47
2022-12-28T07:26:24.460Z,96081.09
2022-12-28T07:28:54.395Z,96083.38
2022-12-28T07:31:30.205Z,96084.41
2022-12-28T07:33:59.914Z,96075.00
2022-12-28T07:36:29.047Z,96072.72
2022-12-28T07:38:56.482Z,96088.31
2022-12-28T07:41:29.288Z,96098.44
2022-12-28T07:43:58.646Z,96100.91
2022-12-28T07:46:28.670Z,96089.09
2022-12-28T07:48:57.204Z,96093.81
2022-12-28T07:51:32.223Z,96090.16
2022-12-28T07:54:00.128Z,96098.72
2022-12-28T07:56:28.554Z,96098.13
2022-12-28T07:59:00.641Z,96085.03
2022-12-28T08:01:32.302Z,96095.69
2022-12-28T08:04:06.489Z,96090.53
2022-12-28T08:06:36.340Z,96096.06
2022-12-28T08:09:05.694Z,96093.63
2022-12-28T08:11:34.678Z,96104.69
2022-12-28T08:14:02.812Z,96082.56
2022-12-28T08:16:33.538Z,96093.03
2022-12-28T08:19:01.013Z,96090.56
2022-12-28T08:21:31.904Z,96086.28
2022-12-28T08:23:59.476Z,96094.88
2022-12-28T08:26:35.331Z,96102.25
2022-12-28T08:29:06.270Z,96081.75
2022-12-28T08:31:36.644Z,96105.50
2022-12-28T08:34:06.105Z,96105.34
2022-12-28T08:36:33.059Z,96105.34
2022-12-28T08:39:01.179Z,96087.34
2022-12-28T08:41:29.525Z,96105.78
2022-12-28T08:43:56.777Z,96101.03
2022-12-28T08:46:32.414Z,96104.66
2022-12-28T08:49:00.764Z,96090.72
2022-12-28T08:51:32.006Z,96109.75
2022-12-28T08:54:01.037Z,96089.94
2022-12-28T08:56:30.585Z,96099.97
2022-12-28T08:58:58.490Z,96100.19
2022-12-28T09:01:29.460Z,96080.91
2022-12-28T09:03:58.952Z,96095.44
2022-12-28T09:06:34.313Z,96084.81
2022-12-28T09:09:06.134Z,96079.09
2022-12-28T09:11:35.736Z,96077.25
2022-12-28T09:14:05.310Z,96071.56
2022-12-28T09:16:32.720Z,96074.41
2022-12-28T09:19:01.602Z,96074.59
2022-12-28T09:21:32.844Z,96069.91
2022-12-28T09:24:00.160Z,96063.16
2022-12-28T09:26:33.919Z,96068.66
2022-12-28T09:29:04.137Z,96057.63
2022-12-28T09:31:33.573Z,96051.69
2022-12-28T09:36:47.798Z,96063.59
2022-12-28T09:39:20.882Z,96040.06
2022-12-28T09:42:21.629Z,96051.94
2022-12-28T09:45:06.149Z,96021.84
2022-12-28T09:47:42.280Z,96040.28
2022-12-28T09:50:09.098Z,96045.16
2022-12-28T09:53:16.030Z,96033.50
2022-12-28T09:55:53.775Z,96015.09
2022-12-28T09:58:22.059Z,96018.56
2022-12-28T10:00:56.102Z,96023.91
2022-12-28T10:03:36.694Z,96032.88
2022-12-28T10:06:09.870Z,96021.47
2022-12-28T10:08:42.819Z,96020.19
2022-12-28T10:11:15.362Z,96010.97
2022-12-28T10:13:57.628Z,96018.13
2022-12-28T10:16:28.232Z,95988.06
2022-12-28T10:18:55.639Z,96014.63
2022-12-28T10:21:31.935Z,96013.59
2022-12-28T10:26:47.936Z,95991.72
2022-12-28T10:29:23.685Z,95968.63
2022-12-28T10:32:04.105Z,95997.63
2022-12-28T10:34:34.340Z,95951.81
2022-12-28T10:37:16.824Z,95986.72
2022-12-28T10:39:54.164Z,95970.56
2022-12-28T10:42:25.038Z,96005.56
2022-12-28T10:44:53.041Z,95998.38
2022-12-28T10:47:44.449Z,95996.09
2022-12-28T10:50:42.651Z,96001.59
2022-12-28T10:53:16.883Z,95994.69
2022-12-28T10:55:44.850Z,95987.53
2022-12-28T10:58:29.974Z,96000.56
2022-12-28T11:01:19.685Z,95991.78
2022-12-28T11:03:46.591Z,95998.53
2022-12-28T11:06:21.303Z,96001.59
2022-12-28T11:09:20.350Z,96005.13
2022-12-28T11:11:49.183Z,96007.13
2022-12-28T11:14:30.902Z,96007.75
2022-12-28T11:16:58.057Z,95995.81
2022-12-28T11:19:26.042Z,96006.06
2022-12-28T11:21:53.691Z,96006.41
2022-12-28T11:24:27.159Z,95841.81
2022-12-28T11:26:54.552Z,96010.50
2022-12-28T11:29:21.532Z,96012.75
2022-12-28T11:31:57.981Z,96013.38
2022-12-28T11:34:27.976Z,96015.97
2022-12-28T11:36:55.736Z,96006.81
2022-12-28T11:39:25.663Z,96017.41
2022-12-28T11:42:19.557Z,95999.03
2022-12-28T11:44:41.192Z,96012.94
2022-12-28T11:47:17.347Z,96014.19
2022-12-28T11:49:46.657Z,96004.75
2022-12-28T11:52:16.427Z,95998.97
2022-12-28T11:54:52.581Z,96007.00
2022-12-28T11:57:43.519Z,96004.00
2022-12-28T12:00:21.844Z,96001.09
2022-12-28T12:02:58.316Z,95990.44
2022-12-28T12:05:36.683Z,95991.22
2022-12-28T12:08:23.485Z,95978.91
2022-12-28T12:11:19.169Z,95980.16
2022-12-28T12:13:50.868Z,95976.69
2022-12-28T12:16:20.876Z,95976.06
2022-12-28T12:18:54.700Z,95939.47
2022-12-28T12:21:33.269Z,95937.63
2022-12-28T12:24:18.911Z,95907.38
2022-12-28T12:26:51.425Z,95958.44
2022-12-28T12:29:41.044Z,95955.44
2022-12-28T12:32:45.094Z,95950.59
2022-12-28T12:35:23.497Z,95953.25
2022-12-28T12:38:20.624Z,95896.31
2022-12-28T12:41:28.794Z,95950.47
2022-12-28T12:44:14.307Z,95950.47
2022-12-28T12:47:05.393Z,95946.22
2022-12-28T12:49:57.860Z,95953.13
2022-12-28T12:52:30.150Z,95923.91
2022-12-28T12:55:09.343Z,95953.69
2022-12-28T12:57:45.395Z,95950.59
2022-12-28T13:00:17.896Z,95957.16
2022-12-28T13:02:48.033Z,95946.25
2022-12-28T13:05:19.902Z,95942.19
2022-12-28T13:07:49.804Z,95926.22
2022-12-28T13:10:32.014Z,95937.91
2022-12-28T13:13:02.431Z,95926.22
2022-12-28T13:15:30.554Z,95911.53
2022-12-28T13:21:12.324Z,95908.81
2022-12-28T13:23:45.111Z,95920.06
2022-12-28T13:26:15.562Z,95912.72
2022-12-28T13:29:08.306Z,95905.34
2022-12-28T13:31:38.482Z,95910.25
2022-12-28T13:34:16.566Z,95909.38
2022-12-28T13:36:56.796Z,95918.78
2022-12-28T13:39:35.437Z,95917.97
2022-12-28T13:42:19.209Z,95914.16
2022-12-28T13:44:51.028Z,95916.81
2022-12-28T13:47:33.291Z,95921.38
2022-12-28T13:50:02.309Z,95924.47
2022-12-28T13:52:38.064Z,95916.13
2022-12-28T13:55:17.721Z,95927.75
2022-12-28T13:57:54.221Z,95903.44
2022-12-28T14:00:25.084Z,95916.72
2022-12-28T14:02:55.754Z,95912.44
2022-12-28T14:05:26.711Z,95894.88
2022-12-28T14:07:56.433Z,95917.78
2022-12-28T14:10:24.350Z,95903.47
2022-12-28T14:12:52.751Z,95914.13
2022-12-28T14:15:20.825Z,95888.75
2022-12-28T14:17:50.694Z,95886.72
2022-12-28T14:20:18.522Z,95901.81
2022-12-28T14:22:45.668Z,95879.19
2022-12-28T14:25:17.483Z,95919.81
2022-12-28T14:27:57.179Z,95915.75
2022-12-28T14:30:33.028Z,95906.38
2022-12-28T14:33:19.409Z,95912.28
2022-12-28T14:35:54.119Z,95910.91
2022-12-28T14:38:34.597Z,95911.31
2022-12-28T14:41:04.229Z,95930.16
2022-12-28T14:43:37.055Z,95919.75
2022-12-28T14:46:30.255Z,95929.53
2022-12-28T14:48:57.419Z,95931.38
2022-12-28T14:51:32.810Z,95899.91
2022-12-28T14:54:17.425Z,95932.56
2022-12-28T14:56:53.492Z,95929.13
2022-12-28T14:59:26.308Z,95935.22
2022-12-28T15:01:53.830Z,95923.00
2022-12-28T15:04:36.116Z,95939.53
2022-12-28T15:07:09.187Z,95930.97
2022-12-28T15:09:36.897Z,95935.63
2022-12-28T15:12:23.163Z,95930.50
2022-12-28T15:14:50.816Z,95918.63
2022-12-28T15:17:18.541Z,95927.63
2022-12-28T15:19:45.999Z,95930.31
2022-12-28T15:22:13.484Z,95928.06
2022-12-28T15:24:45.562Z,95935.47
2022-12-28T15:27:12.750Z,95920.13
2022-12-28T15:32:27.836Z,95914.56
2022-12-28T15:34:55.006Z,95904.97
2022-12-28T15:37:21.922Z,95905.19
2022-12-28T15:39:49.395Z,95917.06
2022-12-28T15:42:16.337Z,95910.75
2022-12-28T15:44:43.195Z,95917.69
2022-12-28T15:47:10.695Z,95935.88
2022-12-28T15:49:37.708Z,95928.75
2022-12-28T15:52:04.839Z,95922.41
2022-12-28T15:54:31.788Z,95892.56
2022-12-28T15:57:00.189Z,95924.88
2022-12-28T15:59:28.879Z,95928.97
2022-12-28T16:01:56.383Z,95911.56
2022-12-28T16:04:23.467Z,95928.94
2022-12-28T16:06:50.536Z,95912.38
2022-12-28T16:09:17.520Z,95917.31
2022-12-28T16:11:45.701Z,95908.91
2022-12-28T16:14:16.436Z,95948.81
2022-12-28T16:16:44.866Z,95904.81
2022-12-28T16:19:13.863Z,95924.88
2022-12-28T16:21:41.441Z,95901.75
2022-12-28T16:24:09.405Z,95923.22
2022-12-28T16:26:36.728Z,95922.25
2022-12-28T16:29:03.701Z,95920.78
2022-12-28T16:31:36.202Z,95931.22
2022-12-28T16:34:21.270Z,95910.38
2022-12-28T16:36:48.433Z,95921.63
2022-12-28T16:39:17.778Z,95926.31
2022-12-28T16:41:45.310Z,95942.28
2022-12-28T16:44:18.875Z,95922.47
2022-12-28T16:46:46.412Z,95946.59
2022-12-28T16:49:13.649Z,95947.81
2022-12-28T16:51:43.930Z,95941.88
2022-12-28T16:54:22.226Z,95932.50
2022-12-28T16:56:50.929Z,95925.75
2022-12-28T16:59:26.545Z,95948.63
2022-12-28T17:01:56.008Z,95956.41
2022-12-28T17:04:23.413Z,95894.06
2022-12-28T17:06:51.843Z,95936.38
2022-12-28T17:09:19.604Z,95958.44
2022-12-28T17:11:48.140Z,95945.16
2022-12-28T17:14:17.507Z,95953.13
2022-12-28T17:16:51.486Z,95934.34
2022-12-28T17:19:18.542Z,95939.81
2022-12-28T17:21:45.508Z,95958.03
2022-12-28T17:24:12.999Z,95957.03
2022-12-28T17:26:40.142Z,95890.00
2022-12-28T17:29:07.214Z,95930.47
2022-12-28T17:31:34.216Z,95940.06
2022-12-28T17:34:02.964Z,95970.06
2022-12-28T17:36:30.136Z,95947.59
2022-12-28T17:38:57.560Z,95910.63
2022-12-28T17:41:27.554Z,95948.63
2022-12-28T17:43:57.195Z,95904.09
2022-12-28T17:46:27.952Z,95940.25
2022-12-28T17:48:56.828Z,95933.09
2022-12-28T17:51:25.515Z,95916.94
2022-12-28T17:53:55.255Z,95949.88
2022-12-28T17:56:22.274Z,95936.19
2022-12-28T17:58:54.752Z,95894.28
2022-12-28T18:01:22.197Z,95961.91
2022-12-28T18:03:49.341Z,95964.78
2022-12-28T18:06:16.312Z,95961.75
2022-12-28T18:08:43.316Z,95941.69
2022-12-28T18:11:11.403Z,95965.81
2022-12-28T18:13:43.009Z,95972.78
2022-12-28T18:16:15.434Z,95962.75
2022-12-28T18:18:43.247Z,95952.72
2022-12-28T18:21:20.983Z,95981.34
2022-12-28T18:23:50.632Z,95969.50
2022-12-28T18:26:21.135Z,95966.44
2022-12-28T18:28:48.041Z,95966.03
2022-12-28T18:31:15.400Z,95960.28
2022-12-28T18:33:43.103Z,95968.25
2022-12-28T18:36:16.999Z,95958.88
2022-12-28T18:38:47.613Z,95955.19
2022-12-28T18:41:17.721Z,95963.16
2022-12-28T18:43:45.861Z,95949.28
2022-12-28T18:46:13.359Z,95963.97
2022-12-28T18:48:41.726Z,95956.22
2022-12-28T18:51:14.618Z,95949.03
2022-12-28T18:53:42.134Z,95961.94
2022-12-28T18:56:12.039Z,95965.19
2022-12-28T18:58:40.731Z,95974.00
2022-12-28T19:01:55.469Z,95974.59
2022-12-28T19:04:05.796Z,95974.97
2022-12-28T19:06:33.519Z,95960.06
2022-12-28T19:09:00.964Z,95981.72
2022-12-28T19:11:28.578Z,95969.44
2022-12-28T19:13:55.587Z,95981.34
2022-12-28T19:16:28.787Z,95970.25
2022-12-28T19:18:58.486Z,95946.34
2022-12-28T19:21:37.512Z,95980.50
2022-12-28T19:24:12.236Z,95977.41
2022-12-28T19:26:40.527Z,95955.09
2022-12-28T19:29:08.152Z,95959.41
2022-12-28T19:31:35.070Z,95966.16
2022-12-28T19:34:02.201Z,95950.63
2022-12-28T19:36:29.501Z,95970.03
2022-12-28T19:38:57.664Z,95977.38
2022-12-28T19:41:25.458Z,95937.28
2022-12-28T19:43:52.644Z,95964.06
2022-12-28T19:46:30.953Z,95984.34
2022-12-28T19:49:00.172Z,95970.63
2022-12-28T19:51:31.385Z,95970.63
2022-12-28T19:54:00.094Z,95973.28
2022-12-28T19:56:27.615Z,95979.59
2022-12-28T19:59:03.086Z,95984.31
2022-12-28T20:01:30.963Z,95979.81
2022-12-28T20:03:59.397Z,95986.59
2022-12-28T20:06:28.947Z,95954.91
2022-12-28T20:08:58.577Z,95962.84
2022-12-28T20:11:26.703Z,95971.25
2022-12-28T20:13:59.716Z,95978.63
2022-12-28T20:16:28.848Z,95978.63
2022-12-28T20:18:56.233Z,95962.66
2022-12-28T20:21:25.491Z,95912.13
2022-12-28T20:23:53.559Z,95968.38
2022-12-28T20:26:22.216Z,95961.19
2022-12-28T20:28:50.857Z,95976.13
2022-12-28T20:31:18.232Z,95979.81
2022-12-28T20:33:46.363Z,95982.06
2022-12-28T20:36:16.048Z,95993.88
2022-12-28T20:38:43.234Z,95984.88
2022-12-28T20:41:32.964Z,95983.44
2022-12-28T20:44:01.550Z,95979.13
2022-12-28T20:46:29.353Z,95987.34
2022-12-28T20:48:56.657Z,95967.09
2022-12-28T20:51:23.669Z,95959.50
2022-12-28T20:53:50.763Z,95981.78
2022-12-28T20:56:18.284Z,95970.91
2022-12-28T20:58:45.375Z,95977.06
2022-12-28T21:01:15.239Z,95972.94
2022-12-28T21:03:44.318Z,95970.50
2022-12-28T21:06:11.973Z,95958.19
2022-12-28T21:08:39.431Z,95949.41
2022-12-28T21:11:06.545Z,95950.00
2022-12-28T21:13:33.546Z,95948.13
2022-12-28T21:16:04.453Z,95945.84
2022-12-28T21:18:32.010Z,95923.91
2022-12-28T21:21:00.252Z,95953.31
2022-12-28T21:23:29.363Z,95921.34
2022-12-28T21:26:03.153Z,95964.91
2022-12-28T21:28:30.449Z,95964.28
2022-12-28T21:30:58.123Z,95941.31
2022-12-28T21:33:25.155Z,95953.78
2022-12-28T21:36:03.521Z,95955.59
2022-12-28T21:38:32.152Z,95924.19
2022-12-28T21:41:04.791Z,95956.16
2022-12-28T21:43:32.161Z,95973.09
2022-12-28T21:46:04.802Z,95953.25
2022-12-28T21:48:33.445Z,95960.75
2022-12-28T21:51:31.582Z,95973.69
2022-12-28T21:54:00.653Z,95981.59
2022-12-28T21:56:28.795Z,95971.94
2022-12-28T21:58:56.907Z,95975.59
2022-12-28T22:01:43.723Z,95971.09
2022-12-28T22:04:35.095Z,95964.88
2022-12-28T22:07:03.029Z,95982.09
2022-12-28T22:09:48.778Z,95970.19
2022-12-28T22:12:34.252Z,95971.81
2022-12-28T22:15:28.023Z,95980.22
2022-12-28T22:17:57.797Z,95952.16
2022-12-28T22:20:25.984Z,95973.66
2022-12-28T22:22:56.521Z,95982.03
2022-12-28T22:25:24.318Z,95984.63
2022-12-28T22:27:51.539Z,95965.91
2022-12-28T22:30:18.746Z,95951.16
2022-12-28T22:32:45.834Z,95978.38
2022-12-28T22:35:12.869Z,95955.88
2022-12-28T22:37:41.019Z,95970.03
2022-12-28T22:40:08.854Z,95966.16
2022-12-28T22:42:39.596Z,95906.94
2022-12-28T22:45:07.165Z,95970.63
2022-12-28T22:47:34.077Z,95962.28
2022-12-28T22:50:00.944Z,95946.72
2022-12-28T22:52:28.033Z,95956.22
2022-12-28T22:54:54.935Z,95963.59
2022-12-28T22:57:21.917Z,95943.53
2022-12-28T22:59:48.730Z,95938.06
2022-12-28T23:02:15.715Z,95944.50
2022-12-28T23:04:42.875Z,95944.38
2022-12-28T23:07:09.800Z,95934.53
2022-12-28T23:09:36.781Z,95927.59
2022-12-28T23:12:03.993Z,95926.75
2022-12-28T23:14:49.610Z,95946.59
2022-12-28T23:17:17.289Z,95952.97
2022-12-28T23:20:04.824Z,95957.06
2022-12-28T23:22:53.529Z,95955.06
2022-12-28T23:25:41.892Z,95937.88
2022-12-28T23:28:12.209Z,95923.56
2022-12-28T23:30:43.674Z,95919.91
2022-12-28T23:33:11.305Z,95947.31
2022-12-28T23:35:38.354Z,95920.16
2022-12-28T23:38:05.266Z,95940.81
2022-12-28T23:40:32.222Z,95913.66
2022-12-28T23:43:00.346Z,95903.06
2022-12-28T23:45:27.180Z,95915.13
2022-12-28T23:47:54.194Z,95927.00
2022-12-28T23:50:21.321Z,95883.81
2022-12-28T23:52:48.301Z,95900.66
2022-12-28T23:55:15.513Z,95912.13
2022-12-28T23:57:43.401Z,95919.53
